createdAt,value
2023-11-23T00:00:12.605Z,5.87
2023-11-23T00:02:41.408Z,6.23
2023-11-23T00:05:11.450Z,6.07
2023-11-23T00:07:39.830Z,5.83
2023-11-23T00:10:07.826Z,6.07
2023-11-23T00:12:34.698Z,6.30
2023-11-23T00:15:01.862Z,5.77
2023-11-23T00:17:31.829Z,5.80
2023-11-23T00:19:59.583Z,6.37
2023-11-23T00:22:27.642Z,6.57
2023-11-23T00:24:57.821Z,6.30
2023-11-23T00:27:24.723Z,6.00
2023-11-23T00:29:52.844Z,5.40
2023-11-23T00:32:20.786Z,5.83
2023-11-23T00:34:47.757Z,6.17
2023-11-23T00:37:14.609Z,5.80
2023-11-23T00:39:41.373Z,6.20
2023-11-23T00:42:08.160Z,6.30
2023-11-23T00:44:34.899Z,6.07
2023-11-23T00:47:01.891Z,6.50
2023-11-23T00:49:28.763Z,5.83
2023-11-23T00:51:55.722Z,6.50
2023-11-23T00:56:54.373Z,6.73
2023-11-23T00:59:21.272Z,6.80
2023-11-23T01:01:48.096Z,6.17
2023-11-23T01:04:14.880Z,6.73
2023-11-23T01:06:43.440Z,6.30
2023-11-23T01:09:11.029Z,6.23
2023-11-23T01:11:37.961Z,6.17
2023-11-23T01:14:04.812Z,6.30
2023-11-23T01:16:31.842Z,6.30
2023-11-23T01:18:58.798Z,6.33
2023-11-23T01:21:25.720Z,6.10
2023-11-23T01:23:52.420Z,6.57
2023-11-23T01:26:19.174Z,6.23
2023-11-23T01:28:45.841Z,6.20
2023-11-23T01:31:12.622Z,6.70
2023-11-23T01:33:39.411Z,6.20
2023-11-23T01:36:06.505Z,6.23
2023-11-23T01:38:33.501Z,6.10
2023-11-23T01:41:00.228Z,6.33
2023-11-23T01:43:27.081Z,6.33
2023-11-23T01:45:53.882Z,6.23
2023-11-23T01:48:21.592Z,5.83
2023-11-23T01:50:51.724Z,6.47
2023-11-23T01:56:01.729Z,6.70
2023-11-23T01:58:29.859Z,6.40
2023-11-23T02:00:56.753Z,6.57
2023-11-23T02:16:30.988Z,6.37
2023-11-23T02:19:05.416Z,7.37
2023-11-23T02:21:38.193Z,7.67
2023-11-23T02:24:12.912Z,6.90
2023-11-23T02:26:45.812Z,7.77
2023-11-23T02:29:18.582Z,7.00
2023-11-23T02:31:51.471Z,7.53
2023-11-23T02:34:24.258Z,7.87
2023-11-23T02:36:57.046Z,7.33
2023-11-23T02:42:01.945Z,7.80
2023-11-23T02:44:28.733Z,6.70
2023-11-23T02:46:55.426Z,6.77
2023-11-23T02:49:22.228Z,7.47
2023-11-23T02:51:49.114Z,6.80
2023-11-23T02:54:15.877Z,6.83
2023-11-23T02:56:42.623Z,7.30
2023-11-23T02:59:09.367Z,6.70
2023-11-23T03:01:36.254Z,7.67
2023-11-23T03:04:05.920Z,7.60
2023-11-23T03:06:32.971Z,6.60
2023-11-23T03:14:05.433Z,7.50
2023-11-23T03:16:32.148Z,8.03
2023-11-23T03:18:59.974Z,6.80
2023-11-23T03:21:26.879Z,7.10
2023-11-23T03:23:54.513Z,7.37
2023-11-23T03:28:54.370Z,7.63
2023-11-23T03:31:22.207Z,7.40
2023-11-23T03:38:58.952Z,7.30
2023-11-23T03:41:25.700Z,7.63
2023-11-23T03:43:52.397Z,7.07
2023-11-23T03:46:19.122Z,7.23
2023-11-23T03:48:45.853Z,7.63
2023-11-23T03:51:13.964Z,7.40
2023-11-23T03:53:40.724Z,6.83
2023-11-23T03:56:07.774Z,7.13
2023-11-23T03:58:34.529Z,6.97
2023-11-23T04:01:01.449Z,7.67
2023-11-23T04:03:28.340Z,6.77
2023-11-23T04:05:55.458Z,7.13
2023-11-23T04:08:24.205Z,7.17
2023-11-23T04:10:50.958Z,7.17
2023-11-23T04:13:17.739Z,6.60
2023-11-23T04:15:44.482Z,6.50
2023-11-23T04:18:11.253Z,6.97
2023-11-23T04:20:38.113Z,6.73
2023-11-23T04:23:04.829Z,6.90
2023-11-23T04:25:31.639Z,7.20
2023-11-23T04:30:30.702Z,7.53
2023-11-23T04:32:59.379Z,6.97
2023-11-23T04:35:26.703Z,6.80
2023-11-23T04:37:53.336Z,6.83
2023-11-23T04:40:20.245Z,6.47
2023-11-23T04:42:46.917Z,6.73
2023-11-23T04:45:13.689Z,7.63
2023-11-23T04:47:40.459Z,7.07
2023-11-23T04:50:07.496Z,6.67
2023-11-23T04:52:34.240Z,7.70
2023-11-23T04:55:00.958Z,6.50
2023-11-23T04:57:27.826Z,6.77
2023-11-23T04:59:54.607Z,7.00
2023-11-23T05:02:21.470Z,6.40
2023-11-23T05:07:21.700Z,6.80
2023-11-23T05:09:48.433Z,6.87
2023-11-23T05:12:15.203Z,6.53
2023-11-23T05:14:42.035Z,6.20
2023-11-23T05:17:08.827Z,6.90
2023-11-23T05:19:42.616Z,6.60
2023-11-23T05:22:10.097Z,6.77
2023-11-23T05:24:36.909Z,6.53
2023-11-23T05:27:03.902Z,7.37
2023-11-23T05:29:30.883Z,7.07
2023-11-23T05:31:57.635Z,6.30
2023-11-23T05:34:24.418Z,6.17
2023-11-23T05:36:51.201Z,6.67
2023-11-23T05:39:19.056Z,6.17
2023-11-23T05:41:46.079Z,6.63
2023-11-23T05:44:13.029Z,6.70
2023-11-23T05:46:40.382Z,6.67
2023-11-23T05:51:41.125Z,6.77
2023-11-23T05:54:07.908Z,6.93
2023-11-23T05:56:35.149Z,6.40
2023-11-23T05:59:01.924Z,6.07
2023-11-23T06:01:28.657Z,6.30
2023-11-23T06:03:55.474Z,6.90
2023-11-23T06:06:24.253Z,6.17
2023-11-23T06:08:51.743Z,6.67
2023-11-23T06:11:18.576Z,6.30
2023-11-23T06:13:47.238Z,6.20
2023-11-23T06:18:47.131Z,6.07
2023-11-23T06:21:14.052Z,6.27
2023-11-23T06:26:12.020Z,5.67
2023-11-23T06:28:39.512Z,5.80
2023-11-23T06:31:07.265Z,5.90
2023-11-23T06:33:34.559Z,6.30
2023-11-23T06:36:01.432Z,5.97
2023-11-23T06:38:29.922Z,5.83
2023-11-23T06:43:29.485Z,6.63
2023-11-23T06:45:56.679Z,6.70
2023-11-23T06:48:23.463Z,5.83
2023-11-23T06:50:50.243Z,10.07
2023-11-23T06:53:16.949Z,6.33
2023-11-23T06:55:44.345Z,7.10
2023-11-23T06:58:11.839Z,6.30
2023-11-23T07:00:40.001Z,6.10
2023-11-23T07:05:38.598Z,5.40
2023-11-23T07:08:06.301Z,5.37
2023-11-23T07:10:35.758Z,5.83
2023-11-23T07:13:02.814Z,5.87
2023-11-23T07:15:31.288Z,5.80
2023-11-23T07:18:01.132Z,5.30
2023-11-23T07:20:28.076Z,5.47
2023-11-23T07:22:55.065Z,5.77
2023-11-23T07:25:21.784Z,5.03
2023-11-23T07:27:48.504Z,5.43
2023-11-23T07:30:15.737Z,6.87
2023-11-23T07:32:42.617Z,6.60
2023-11-23T07:35:09.753Z,4.93
2023-11-23T07:37:36.761Z,4.83
2023-11-23T07:40:15.046Z,5.37
2023-11-23T07:42:44.424Z,5.00
2023-11-23T07:45:12.121Z,4.93
2023-11-23T07:50:17.366Z,4.23
2023-11-23T07:52:45.375Z,4.40
2023-11-23T07:55:14.028Z,4.77
2023-11-23T07:57:40.810Z,4.60
2023-11-23T08:00:09.695Z,4.10
2023-11-23T08:02:36.941Z,4.43
2023-11-23T08:07:37.528Z,4.30
2023-11-23T08:10:13.966Z,4.40
2023-11-23T08:12:40.796Z,4.37
2023-11-23T08:15:08.643Z,4.53
2023-11-23T08:17:35.332Z,4.30
2023-11-23T08:20:02.148Z,4.50
2023-11-23T08:22:28.961Z,4.13
2023-11-23T08:24:55.639Z,4.03
2023-11-23T08:27:24.101Z,4.33
2023-11-23T08:29:51.015Z,4.03
2023-11-23T08:32:17.805Z,4.50
2023-11-23T08:34:45.193Z,4.20
2023-11-23T08:37:12.062Z,4.20
2023-11-23T08:39:38.994Z,4.37
2023-11-23T08:42:06.349Z,4.57
2023-11-23T08:44:33.274Z,4.00
2023-11-23T08:47:01.785Z,3.77
2023-11-23T08:49:28.644Z,4.10
2023-11-23T08:51:55.358Z,4.17
2023-11-23T08:54:22.995Z,4.20
2023-11-23T08:56:49.807Z,4.30
2023-11-23T08:59:16.566Z,3.77
2023-11-23T09:01:46.624Z,4.10
2023-11-23T09:04:14.934Z,3.83
2023-11-23T09:06:41.986Z,3.97
2023-11-23T09:09:09.488Z,3.87
2023-11-23T09:11:36.239Z,3.60
2023-11-23T09:14:04.008Z,3.40
2023-11-23T09:16:31.250Z,3.60
2023-11-23T09:18:58.092Z,4.03
2023-11-23T09:21:25.567Z,4.00
2023-11-23T09:23:55.233Z,3.23
2023-11-23T09:26:22.064Z,3.93
2023-11-23T09:28:49.180Z,3.53
2023-11-23T09:31:16.409Z,3.47
2023-11-23T09:33:43.366Z,3.20
2023-11-23T09:36:13.082Z,3.40
2023-11-23T09:38:39.782Z,3.43
2023-11-23T09:41:12.023Z,3.60
2023-11-23T09:43:38.697Z,3.10
2023-11-23T09:46:06.026Z,3.27
2023-11-23T09:48:35.449Z,3.20
2023-11-23T09:51:02.584Z,3.60
2023-11-23T09:53:30.373Z,3.47
2023-11-23T09:55:57.900Z,3.13
2023-11-23T09:58:25.180Z,2.93
2023-11-23T10:00:52.448Z,3.00
2023-11-23T10:03:24.477Z,3.30
2023-11-23T10:05:52.483Z,2.97
2023-11-23T10:08:19.839Z,3.17
2023-11-23T10:10:46.592Z,3.10
2023-11-23T10:13:13.372Z,3.07
2023-11-23T10:15:40.111Z,3.07
2023-11-23T10:18:08.608Z,3.07
2023-11-23T10:20:39.399Z,3.07
2023-11-23T10:23:09.209Z,3.10
2023-11-23T10:25:37.207Z,3.10
2023-11-23T10:28:07.421Z,2.90
2023-11-23T10:30:35.862Z,3.23
2023-11-23T10:33:02.713Z,2.87
2023-11-23T10:35:42.661Z,2.60
2023-11-23T10:38:09.775Z,3.10
2023-11-23T10:40:37.135Z,2.70
2023-11-23T10:43:04.602Z,2.53
2023-11-23T10:45:37.098Z,2.60
2023-11-23T10:50:39.226Z,2.40
2023-11-23T10:53:07.057Z,2.70
2023-11-23T10:58:17.609Z,5.10
2023-11-23T11:00:45.928Z,5.90
2023-11-23T11:08:31.397Z,3.30
2023-11-23T11:10:59.132Z,2.90
2023-11-23T11:13:27.116Z,3.37
2023-11-23T11:15:58.366Z,2.70
2023-11-23T11:18:27.381Z,3.10
2023-11-23T11:21:14.272Z,3.17
2023-11-23T11:23:41.945Z,2.50
2023-11-23T11:26:14.130Z,2.70
2023-11-23T11:28:41.609Z,2.60
2023-11-23T11:31:11.406Z,2.50
2023-11-23T11:33:39.258Z,2.70
2023-11-23T11:36:08.956Z,2.33
2023-11-23T11:38:40.837Z,2.30
2023-11-23T11:41:11.259Z,2.13
2023-11-23T11:43:38.220Z,2.20
2023-11-23T11:46:06.649Z,2.20
2023-11-23T11:48:33.632Z,2.27
2023-11-23T11:51:01.012Z,2.40
2023-11-23T11:53:28.090Z,2.10
2023-11-23T11:55:55.744Z,2.17
2023-11-23T11:58:22.557Z,2.20
2023-11-23T12:00:50.048Z,2.40
2023-11-23T12:03:17.731Z,2.30
2023-11-23T12:05:44.519Z,2.07
2023-11-23T12:08:11.260Z,2.40
2023-11-23T12:10:41.678Z,2.47
2023-11-23T12:13:16.229Z,2.50
2023-11-23T12:15:45.684Z,2.20
2023-11-23T12:18:14.643Z,2.40
2023-11-23T12:20:42.846Z,2.00
2023-11-23T12:23:10.104Z,2.20
2023-11-23T12:25:36.980Z,2.17
2023-11-23T12:28:04.099Z,2.00
2023-11-23T12:30:31.296Z,2.20
2023-11-23T12:33:01.805Z,1.93
2023-11-23T12:35:29.275Z,2.47
2023-11-23T12:37:57.110Z,2.00
2023-11-23T12:40:23.835Z,2.07
2023-11-23T12:42:51.466Z,2.00
2023-11-23T12:45:18.267Z,2.00
2023-11-23T12:47:45.229Z,1.70
2023-11-23T12:50:12.580Z,1.90
2023-11-23T12:52:42.672Z,1.90
2023-11-23T12:57:44.504Z,1.87
2023-11-23T13:00:15.168Z,2.00
2023-11-23T13:02:42.861Z,2.20
2023-11-23T13:05:13.910Z,2.00
2023-11-23T13:07:40.974Z,2.20
2023-11-23T13:10:10.714Z,2.27
2023-11-23T13:12:38.139Z,1.80
2023-11-23T13:15:13.520Z,1.60
2023-11-23T13:17:41.725Z,1.70
2023-11-23T13:20:12.043Z,1.80
2023-11-23T13:22:38.820Z,1.60
2023-11-23T13:27:41.948Z,1.60
2023-11-23T13:30:10.277Z,1.47
2023-11-23T13:32:39.893Z,1.43
2023-11-23T13:35:08.492Z,1.40
2023-11-23T13:37:35.357Z,1.43
2023-11-23T13:40:05.415Z,1.43
2023-11-23T13:42:32.154Z,1.50
2023-11-23T13:44:58.910Z,1.60
2023-11-23T13:47:26.514Z,1.30
2023-11-23T13:49:53.267Z,1.17
2023-11-23T13:52:20.295Z,1.17
2023-11-23T13:54:48.936Z,1.10
2023-11-23T13:57:16.121Z,1.13
2023-11-23T13:59:42.889Z,1.30
2023-11-23T14:02:09.798Z,1.47
2023-11-23T14:04:36.924Z,1.60
2023-11-23T14:07:03.676Z,1.10
2023-11-23T14:09:32.207Z,1.40
2023-11-23T14:11:59.065Z,1.60
2023-11-23T14:14:25.757Z,1.43
2023-11-23T14:16:52.554Z,1.03
2023-11-23T14:19:21.278Z,1.10
2023-11-23T14:21:48.793Z,0.77
2023-11-23T14:24:17.008Z,0.83
2023-11-23T14:26:44.063Z,1.00
2023-11-23T14:29:12.656Z,0.90
2023-11-23T14:31:39.536Z,0.90
2023-11-23T14:34:07.326Z,1.00
2023-11-23T14:36:34.315Z,1.13
2023-11-23T14:39:02.027Z,0.70
2023-11-23T14:41:28.939Z,0.73
2023-11-23T14:43:55.860Z,0.50
2023-11-23T14:46:22.846Z,0.43
2023-11-23T14:48:49.990Z,0.40
2023-11-23T14:51:17.240Z,0.50
2023-11-23T14:53:44.684Z,0.60
2023-11-23T14:56:11.521Z,0.60
2023-11-23T14:58:38.582Z,0.60
2023-11-23T15:01:05.542Z,0.80
2023-11-23T15:03:32.424Z,0.90
2023-11-23T15:05:59.246Z,0.73
2023-11-23T15:08:25.969Z,1.60
2023-11-23T15:13:32.338Z,0.80
2023-11-23T15:16:03.028Z,0.90
2023-11-23T15:18:32.148Z,1.10
2023-11-23T15:21:00.752Z,1.03
2023-11-23T15:23:27.541Z,1.30
2023-11-23T15:25:55.636Z,1.13
2023-11-23T15:28:23.094Z,0.90
2023-11-23T15:30:50.125Z,0.80
2023-11-23T15:33:17.987Z,1.17
2023-11-23T15:38:22.954Z,1.00
2023-11-23T15:40:50.293Z,1.10
2023-11-23T15:43:17.558Z,1.20
2023-11-23T15:45:44.740Z,1.50
2023-11-23T15:48:12.590Z,0.97
2023-11-23T15:50:41.902Z,1.10
2023-11-23T15:53:08.678Z,1.07
2023-11-23T15:55:37.714Z,1.17
2023-11-23T15:58:04.780Z,0.97
2023-11-23T16:00:33.221Z,1.07
2023-11-23T16:03:00.922Z,1.20
2023-11-23T16:05:29.126Z,1.10
2023-11-23T16:07:56.694Z,1.37
2023-11-23T16:10:23.573Z,0.80
2023-11-23T16:12:50.449Z,1.00
2023-11-23T16:15:18.053Z,0.90
2023-11-23T16:17:45.635Z,0.90
2023-11-23T16:20:16.682Z,0.97
2023-11-23T16:25:19.127Z,0.80
2023-11-23T16:27:46.365Z,0.80
2023-11-23T16:30:15.453Z,0.80
2023-11-23T16:32:43.650Z,1.50
2023-11-23T16:35:13.285Z,1.77
2023-11-23T16:37:40.243Z,4.17
2023-11-23T16:40:11.762Z,1.70
2023-11-23T16:42:40.862Z,1.63
2023-11-23T16:45:08.569Z,2.43
2023-11-23T16:47:36.325Z,1.97
2023-11-23T16:50:03.369Z,1.67
2023-11-23T16:52:30.160Z,1.97
2023-11-23T16:54:57.358Z,2.20
2023-11-23T16:57:24.160Z,14.13
2023-11-23T16:59:50.881Z,4.13
2023-11-23T17:02:18.053Z,2.67
2023-11-23T17:04:49.233Z,1.30
2023-11-23T17:07:18.251Z,1.20
2023-11-23T17:09:47.459Z,4.40
2023-11-23T17:12:14.195Z,1.63
2023-11-23T17:14:40.971Z,0.70
2023-11-23T17:17:08.185Z,1.07
2023-11-23T17:19:34.950Z,1.13
2023-11-23T17:22:01.970Z,1.23
2023-11-23T17:24:28.914Z,1.10
2023-11-23T17:26:55.856Z,1.60
2023-11-23T17:29:22.637Z,1.30
2023-11-23T17:31:55.477Z,1.33
2023-11-23T17:34:23.537Z,0.80
2023-11-23T17:36:50.352Z,1.17
2023-11-23T17:39:17.349Z,1.10
2023-11-23T17:41:45.964Z,1.23
2023-11-23T17:44:14.161Z,1.00
2023-11-23T17:46:41.020Z,1.20
2023-11-23T17:49:07.938Z,1.00
2023-11-23T17:51:34.776Z,0.90
2023-11-23T17:54:01.989Z,1.33
2023-11-23T17:56:28.728Z,1.17
2023-11-23T17:59:08.499Z,1.50
2023-11-23T18:01:42.199Z,9.87
2023-11-23T18:04:09.027Z,24.63
2023-11-23T18:06:36.017Z,1.70
2023-11-23T18:09:02.866Z,1.40
2023-11-23T18:11:29.589Z,1.40
2023-11-23T18:13:56.365Z,1.30
2023-11-23T18:16:23.405Z,0.93
2023-11-23T18:18:50.159Z,0.83
2023-11-23T18:21:17.004Z,0.80
2023-11-23T18:23:44.076Z,1.60
2023-11-23T18:26:11.332Z,1.20
2023-11-23T18:28:38.182Z,0.90
2023-11-23T18:31:05.553Z,1.00
2023-11-23T18:33:36.083Z,1.47
2023-11-23T18:36:03.933Z,0.90
2023-11-23T18:38:31.123Z,1.00
2023-11-23T18:40:57.852Z,1.00
2023-11-23T18:43:24.591Z,0.83
2023-11-23T18:45:51.411Z,0.87
2023-11-23T18:48:18.839Z,0.93
2023-11-23T18:50:45.829Z,1.13
2023-11-23T18:53:12.734Z,0.90
2023-11-23T18:55:39.496Z,1.00
2023-11-23T18:58:06.577Z,1.10
2023-11-23T19:00:34.104Z,0.93
2023-11-23T19:03:02.664Z,1.00
2023-11-23T19:05:29.453Z,1.63
2023-11-23T19:07:56.231Z,1.50
2023-11-23T19:13:06.296Z,1.10
2023-11-23T19:18:14.651Z,1.03
2023-11-23T19:20:41.883Z,1.10
2023-11-23T19:23:08.870Z,1.73
2023-11-23T19:25:36.021Z,2.00
2023-11-23T19:28:03.045Z,1.80
2023-11-23T19:33:06.430Z,1.50
2023-11-23T19:35:33.446Z,3.03
2023-11-23T19:38:00.425Z,2.60
2023-11-23T19:40:27.299Z,2.20
2023-11-23T19:42:55.266Z,1.50
2023-11-23T19:45:22.548Z,1.70
2023-11-23T19:47:49.695Z,1.20
2023-11-23T19:52:52.780Z,1.30
2023-11-23T19:55:19.507Z,1.30
2023-11-23T19:57:46.258Z,1.30
2023-11-23T20:00:15.342Z,1.30
2023-11-23T20:02:42.484Z,1.20
2023-11-23T20:05:09.827Z,1.20
2023-11-23T20:07:36.788Z,1.07
2023-11-23T20:10:03.962Z,1.27
2023-11-23T20:12:30.786Z,1.60
2023-11-23T20:14:57.575Z,1.23
2023-11-23T20:17:26.242Z,1.57
2023-11-23T20:19:53.143Z,1.30
2023-11-23T20:24:58.266Z,1.40
2023-11-23T20:27:25.107Z,1.50
2023-11-23T20:29:51.915Z,1.40
2023-11-23T20:32:18.642Z,1.43
2023-11-23T20:34:45.952Z,2.00
2023-11-23T20:37:12.968Z,1.90
2023-11-23T20:39:40.138Z,1.50
2023-11-23T20:42:07.322Z,1.60
2023-11-23T20:44:34.823Z,1.27
2023-11-23T20:47:01.508Z,1.50
2023-11-23T20:51:59.863Z,1.77
2023-11-23T20:54:26.683Z,1.20
2023-11-23T20:56:57.674Z,1.70
2023-11-23T20:59:25.714Z,1.60
2023-11-23T21:01:53.382Z,1.40
2023-11-23T21:04:26.135Z,1.77
2023-11-23T21:07:01.696Z,1.87
2023-11-23T21:09:29.939Z,1.93
2023-11-23T21:11:57.122Z,1.30
2023-11-23T21:14:24.929Z,1.00
2023-11-23T21:16:51.706Z,1.10
2023-11-23T21:19:18.837Z,1.20
2023-11-23T21:21:45.865Z,1.10
2023-11-23T21:24:14.487Z,1.10
2023-11-23T21:26:42.266Z,1.00
2023-11-23T21:29:10.879Z,1.10
2023-11-23T21:31:38.016Z,0.90
2023-11-23T21:34:05.237Z,0.80
2023-11-23T21:36:32.234Z,0.87
2023-11-23T21:41:30.479Z,0.83
2023-11-23T21:43:57.311Z,0.77
2023-11-23T21:46:25.936Z,0.73
2023-11-23T21:48:53.841Z,0.60
2023-11-23T21:51:29.868Z,0.97
2023-11-23T21:53:59.738Z,0.70
2023-11-23T21:56:26.547Z,0.77
2023-11-23T22:01:25.004Z,0.73
2023-11-23T22:03:52.064Z,0.90
2023-11-23T22:06:19.220Z,0.90
2023-11-23T22:08:45.986Z,0.90
2023-11-23T22:11:14.099Z,1.03
2023-11-23T22:13:41.579Z,0.80
2023-11-23T22:16:08.322Z,0.93
2023-11-23T22:18:36.283Z,0.80
2023-11-23T22:23:38.680Z,0.63
2023-11-23T22:26:05.923Z,0.80
2023-11-23T22:28:33.077Z,1.90
2023-11-23T22:31:01.647Z,0.80
2023-11-23T22:33:28.751Z,0.70
2023-11-23T22:35:55.661Z,1.03
2023-11-23T22:38:24.132Z,0.87
2023-11-23T22:40:51.075Z,1.17
2023-11-23T22:43:18.042Z,0.90
2023-11-23T22:45:44.992Z,0.80
2023-11-23T22:48:11.701Z,0.90
2023-11-23T22:50:40.242Z,0.77
2023-11-23T22:53:07.096Z,1.00
2023-11-23T22:55:33.818Z,1.30
2023-11-23T22:58:00.565Z,1.03
2023-11-23T23:00:29.468Z,1.30
2023-11-23T23:02:56.456Z,1.80
2023-11-23T23:05:26.529Z,1.50
2023-11-23T23:07:58.127Z,1.07
2023-11-23T23:10:26.320Z,1.03
2023-11-23T23:12:56.716Z,1.30
2023-11-23T23:15:24.350Z,1.13
2023-11-23T23:17:53.033Z,2.60
2023-11-23T23:20:20.106Z,2.87
2023-11-23T23:22:46.877Z,1.80
2023-11-23T23:25:14.289Z,1.53
2023-11-23T23:27:41.785Z,0.90
2023-11-23T23:30:10.454Z,1.57
2023-11-23T23:32:38.364Z,2.17
2023-11-23T23:35:11.278Z,1.10
2023-11-23T23:37:39.276Z,0.73
2023-11-23T23:40:10.813Z,0.93
2023-11-23T23:42:38.234Z,0.80
2023-11-23T23:45:06.184Z,0.87
2023-11-23T23:47:32.923Z,0.70
2023-11-23T23:49:59.695Z,0.70
2023-11-23T23:52:26.394Z,0.80
2023-11-23T23:57:24.479Z,0.80
2023-11-23T23:59:51.260Z,0.77
